Time;durP1;ratioP1;P1;durP2;ratioP2;P2;SDS_P1;SDS_P2;PMS_P1;PMS_P2;Temp;Humidity;BMP_temperature;BMP_pressure;BME280_temperature;BME280_humidity;BME280_pressure;Samples;Min_cycle;Max_cycle;Signal;HPM_P1;HPM_P2
2023/11/27 00:01:19;;;;;;;3.83;2.33;;;;;;;-0.77;80.73;99501.84;6196606;28;20058;-72
2023/11/27 00:04:22;;;;;;;2.83;1.95;;;;;;;-0.82;80.53;99503.69;6196743;28;20050;-73
2023/11/27 00:07:23;;;;;;;5.72;2.70;;;;;;;-0.81;80.44;99506.19;6196354;28;20061;-72
2023/11/27 00:10:24;;;;;;;6.70;2.60;;;;;;;-0.77;79.94;99506.97;6198092;28;20062;-76
2023/11/27 00:13:25;;;;;;;3.90;2.55;;;;;;;-0.77;80.13;99508.72;6197364;28;20113;-75
2023/11/27 00:16:26;;;;;;;2.95;2.10;;;;;;;-0.82;79.76;99501.97;6196552;28;20057;-75
2023/11/27 00:19:27;;;;;;;5.75;2.17;;;;;;;-0.89;79.91;99505.53;6196507;28;20113;-75
2023/11/27 00:22:28;;;;;;;3.72;2.05;;;;;;;-1.04;80.57;99511.84;6196238;28;20316;-75
2023/11/27 00:25:28;;;;;;;4.90;3.03;;;;;;;-1.12;80.85;99508.63;6196572;28;20050;-75
2023/11/27 00:28:29;;;;;;;2.80;1.58;;;;;;;-1.02;80.65;99507.53;6196644;28;20046;-76
2023/11/27 00:31:32;;;;;;;3.05;1.73;;;;;;;-0.95;80.79;99515.09;6196616;28;20050;-76
2023/11/27 00:34:35;;;;;;;4.20;2.30;;;;;;;-1.00;80.77;99509.25;6196312;28;20054;-73
2023/11/27 00:37:37;;;;;;;2.75;1.65;;;;;;;-1.02;80.83;99516.94;6196759;28;20526;-75
2023/11/27 00:40:40;;;;;;;3.13;2.25;;;;;;;-1.08;79.51;99506.84;6197756;28;20062;-76
2023/11/27 00:43:41;;;;;;;1.63;1.45;;;;;;;-1.13;79.70;99514.63;6197901;28;20201;-76
2023/11/27 00:46:42;;;;;;;6.45;2.15;;;;;;;-1.19;80.07;99508.78;6198106;28;20137;-76
2023/11/27 00:49:43;;;;;;;4.40;2.25;;;;;;;-1.16;80.03;99506.16;6195982;28;20050;-72
2023/11/27 00:52:44;;;;;;;2.45;1.90;;;;;;;-1.30;80.24;99509.84;6196757;28;20078;-73
2023/11/27 00:55:45;;;;;;;3.53;2.10;;;;;;;-1.44;79.73;99502.47;6197334;28;20060;-74
2023/11/27 00:58:46;;;;;;;3.45;2.00;;;;;;;-1.40;80.10;99498.16;6197348;28;20055;-75
2023/11/27 01:01:49;;;;;;;6.63;1.73;;;;;;;-1.45;79.89;99505.91;6197550;28;20061;-75
2023/11/27 01:04:53;;;;;;;2.72;1.90;;;;;;;-1.51;80.28;99497.53;6196156;28;20084;-72
2023/11/27 01:07:54;;;;;;;3.17;1.67;;;;;;;-1.53;80.78;99500.09;6197314;28;20101;-73
2023/11/27 01:10:54;;;;;;;3.47;2.50;;;;;;;-1.65;80.87;99496.09;6200184;28;20058;-75
2023/11/27 01:13:58;;;;;;;2.15;1.60;;;;;;;-1.65;80.77;99496.09;6201193;28;20375;-73
2023/11/27 01:16:59;;;;;;;2.38;1.35;;;;;;;-1.65;80.84;99508.88;6200543;28;20057;-75
2023/11/27 01:20:00;;;;;;;2.92;1.92;;;;;;;-1.69;80.80;99507.25;6201473;28;20104;-74
2023/11/27 01:23:02;;;;;;;3.67;1.70;;;;;;;-1.64;81.23;99514.84;6199939;28;20429;-72
2023/11/27 01:26:03;;;;;;;2.75;1.48;;;;;;;-1.80;81.63;99508.34;6201436;28;20046;-73
2023/11/27 01:29:04;;;;;;;1.08;0.95;;;;;;;-1.74;80.74;99505.66;6200553;28;20141;-73
2023/11/27 01:32:05;;;;;;;2.95;2.03;;;;;;;-1.91;81.63;99495.75;6199394;28;20061;-73
2023/11/27 01:35:06;;;;;;;3.28;1.85;;;;;;;-1.94;81.92;99486.41;6201162;28;20055;-76
2023/11/27 01:38:09;;;;;;;3.35;1.83;;;;;;;-2.02;81.46;99488.28;6201238;28;20073;-75
2023/11/27 01:41:13;;;;;;;3.80;2.20;;;;;;;-2.15;83.08;99481.72;6201724;28;20129;-75
2023/11/27 01:44:14;;;;;;;1.25;1.15;;;;;;;-2.24;82.86;99488.69;6201001;28;20050;-72
2023/11/27 01:47:15;;;;;;;2.10;1.20;;;;;;;-2.40;83.69;99489.81;6199345;28;20058;-76
2023/11/27 01:50:16;;;;;;;1.30;1.20;;;;;;;-2.33;83.90;99491.38;6199170;28;20077;-75
2023/11/27 01:53:17;;;;;;;6.57;2.53;;;;;;;-2.23;83.66;99485.22;6199188;28;20477;-75
2023/11/27 01:56:23;;;;;;;0.90;0.85;;;;;;;-2.34;84.22;99470.97;6199649;28;20047;-73
2023/11/27 01:59:27;;;;;;;4.20;1.85;;;;;;;-2.41;83.61;99477.88;6201116;28;20091;-73
2023/11/27 02:02:28;;;;;;;1.42;1.23;;;;;;;-2.44;84.35;99473.69;6199879;28;20066;-72
2023/11/27 02:05:30;;;;;;;2.08;1.40;;;;;;;-2.50;84.64;99468.69;6201063;28;20073;-72
2023/11/27 02:08:33;;;;;;;2.75;1.45;;;;;;;-2.45;84.45;99469.47;6199600;28;20458;-75
2023/11/27 02:11:47;;;;;;;3.47;2.05;;;;;;;-2.48;84.69;99478.88;6200804;28;20050;-76
2023/11/27 02:14:49;;;;;;;6.38;1.55;;;;;;;-2.41;84.58;99471.94;6200428;28;20104;-75
2023/11/27 02:17:50;;;;;;;1.52;1.15;;;;;;;-2.57;84.56;99469.66;6199175;28;20054;-73
2023/11/27 02:20:51;;;;;;;4.78;1.70;;;;;;;-2.58;84.53;99462.84;6198894;28;20058;-75
2023/11/27 02:23:52;;;;;;;7.20;1.55;;;;;;;-2.41;84.38;99479.59;6199143;28;20053;-75
2023/11/27 02:26:53;;;;;;;1.98;1.08;;;;;;;-2.52;84.66;99464.47;6198968;28;20051;-75
2023/11/27 02:29:54;;;;;;;2.03;1.30;;;;;;;-2.49;84.71;99472.94;6199351;28;20050;-72
2023/11/27 02:32:55;;;;;;;1.83;1.42;;;;;;;-2.49;84.14;99472.94;6198808;28;20677;-76
2023/11/27 02:35:59;;;;;;;2.13;1.30;;;;;;;-2.57;83.92;99477.31;6200028;28;20054;-72
2023/11/27 02:39:06;;;;;;;3.47;1.50;;;;;;;-2.68;84.05;99477.50;6199900;28;20493;-72
2023/11/27 02:42:08;;;;;;;5.43;1.70;;;;;;;-2.57;84.86;99476.47;6199892;28;20196;-72
2023/11/27 02:45:10;;;;;;;4.22;1.52;;;;;;;-2.57;83.75;99464.56;6197916;28;20050;-73
2023/11/27 02:48:11;;;;;;;3.60;1.70;;;;;;;-2.57;84.11;99469.66;6172615;28;20062;-75
2023/11/27 02:51:12;;;;;;;5.35;1.73;;;;;;;-2.58;83.75;99470.53;6166316;28;20047;-75
2023/11/27 02:54:13;;;;;;;1.92;1.45;;;;;;;-2.49;83.53;99484.84;6151426;29;20145;-72
2023/11/27 02:57:14;;;;;;;2.30;1.63;;;;;;;-2.57;83.09;99484.13;6151349;29;20078;-72
2023/11/27 03:00:15;;;;;;;3.05;1.52;;;;;;;-2.61;83.49;99485.03;6151318;29;20074;-75
2023/11/27 03:03:16;;;;;;;3.85;2.03;;;;;;;-2.60;83.82;99481.63;6184322;28;20057;-72
2023/11/27 03:06:18;;;;;;;2.58;1.75;;;;;;;-2.66;83.31;99490.22;6197164;28;20086;-75
2023/11/27 03:09:18;;;;;;;1.30;1.20;;;;;;;-2.67;83.57;99486.84;6198705;28;20058;-72
2023/11/27 03:12:22;;;;;;;1.90;1.45;;;;;;;-2.75;82.80;99472.53;6199092;28;20121;-73
2023/11/27 03:15:27;;;;;;;2.97;1.77;;;;;;;-2.76;82.64;99473.38;6199129;28;20060;-73
2023/11/27 03:18:28;;;;;;;3.13;2.10;;;;;;;-2.74;83.13;99472.50;6199041;28;20113;-73
2023/11/27 03:21:29;;;;;;;4.82;2.33;;;;;;;-2.69;82.31;99470.69;6197993;28;20377;-72
2023/11/27 03:24:29;;;;;;;4.53;2.45;;;;;;;-2.76;83.07;99464.03;6198872;28;20507;-73
2023/11/27 03:27:30;;;;;;;4.88;1.80;;;;;;;-2.76;83.11;99460.59;6197684;28;20057;-74
2023/11/27 03:30:33;;;;;;;1.92;1.60;;;;;;;-2.79;83.15;99458.13;6197510;28;20050;-72
2023/11/27 03:33:35;;;;;;;3.33;1.95;;;;;;;-2.84;82.48;99466.69;6197183;28;20111;-75
2023/11/27 03:36:38;;;;;;;1.83;1.70;;;;;;;-2.87;83.07;99469.28;6197308;28;20050;-75
2023/11/27 03:39:39;;;;;;;2.83;1.40;;;;;;;-2.93;82.78;99471.94;6197392;28;20101;-75
2023/11/27 03:42:39;;;;;;;1.92;1.40;;;;;;;-2.93;82.79;99482.13;6196851;28;20068;-73
2023/11/27 03:45:41;;;;;;;2.58;1.98;;;;;;;-2.97;82.81;99472.84;6196996;28;20390;-75
2023/11/27 03:48:42;;;;;;;1.83;1.27;;;;;;;-2.95;82.73;99477.94;6198338;28;20050;-76
2023/11/27 03:51:43;;;;;;;2.03;1.20;;;;;;;-2.97;83.11;99467.72;6197087;28;20319;-75
2023/11/27 03:54:46;;;;;;;2.22;1.55;;;;;;;-2.95;82.36;99466.00;6197461;28;20050;-73
2023/11/27 03:57:47;;;;;;;1.65;1.55;;;;;;;-2.99;83.52;99458.41;6198220;28;20084;-76
2023/11/27 04:00:50;;;;;;;4.38;1.50;;;;;;;-3.04;83.21;99450.84;6198378;28;20658;-73
2023/11/27 04:03:52;;;;;;;2.72;1.85;;;;;;;-3.07;83.16;99459.41;6198078;28;20058;-73
2023/11/27 04:06:54;;;;;;;2.90;1.77;;;;;;;-3.04;83.59;99467.00;6197735;28;20082;-72
2023/11/27 04:09:55;;;;;;;2.65;1.73;;;;;;;-3.06;83.04;99465.34;6196364;28;20343;-75
2023/11/27 04:12:56;;;;;;;2.45;1.63;;;;;;;-3.14;83.75;99462.06;6196050;28;20082;-75
2023/11/27 04:15:57;;;;;;;2.33;1.60;;;;;;;-3.13;83.46;99472.25;6197485;28;20054;-75
2023/11/27 04:19:01;;;;;;;4.18;1.67;;;;;;;-3.06;84.04;99473.81;6197902;28;20129;-75
2023/11/27 04:22:02;;;;;;;2.72;1.50;;;;;;;-2.98;83.54;99480.53;6197070;28;20069;-73
2023/11/27 04:25:03;;;;;;;5.10;2.38;;;;;;;-3.07;83.65;99476.38;6197854;28;20425;-72
2023/11/27 04:28:04;;;;;;;4.78;1.95;;;;;;;-3.18;83.52;99473.16;6196416;28;20088;-75
2023/11/27 04:31:06;;;;;;;4.25;2.20;;;;;;;-3.12;83.95;99478.19;6196569;28;20077;-73
2023/11/27 04:34:07;;;;;;;7.05;2.97;;;;;;;-3.12;83.87;99479.03;6196594;28;20050;-73
2023/11/27 04:37:10;;;;;;;4.50;1.63;;;;;;;-3.29;83.96;99480.97;6196479;28;20138;-72
2023/11/27 04:40:14;;;;;;;7.05;2.45;;;;;;;-3.39;84.17;99479.41;6197606;28;20053;-75
2023/11/27 04:43:15;;;;;;;4.45;2.22;;;;;;;-3.23;84.84;99473.25;6195562;28;20055;-75
2023/11/27 04:46:16;;;;;;;3.45;2.03;;;;;;;-3.13;85.05;99482.47;6201339;28;20057;-75
2023/11/27 04:49:17;;;;;;;2.50;2.05;;;;;;;-3.12;84.67;99479.03;6201206;28;20082;-73
2023/11/27 04:52:18;;;;;;;2.00;1.30;;;;;;;-3.12;84.02;99479.03;6199802;28;20061;-73
2023/11/27 04:55:19;;;;;;;2.65;1.50;;;;;;;-3.19;84.33;99476.56;6200202;28;20054;-76
2023/11/27 04:58:19;;;;;;;1.85;1.45;;;;;;;-3.07;84.15;99468.75;6200184;28;20534;-73
2023/11/27 05:01:20;;;;;;;3.55;1.75;;;;;;;-3.19;83.92;99474.03;6200436;28;20050;-74
2023/11/27 05:04:21;;;;;;;2.28;1.80;;;;;;;-3.15;84.22;99475.66;6200872;28;20563;-72
2023/11/27 05:07:22;;;;;;;4.47;1.85;;;;;;;-3.13;84.35;99464.59;6201559;28;20053;-73
2023/11/27 05:10:23;;;;;;;2.03;1.50;;;;;;;-3.07;83.96;99469.59;6200585;28;20065;-74
2023/11/27 05:13:24;;;;;;;4.13;2.53;;;;;;;-2.99;83.92;99471.19;6200095;28;20378;-72
2023/11/27 05:16:25;;;;;;;3.10;1.48;;;;;;;-3.08;83.27;99484.94;6200492;28;20058;-73
2023/11/27 05:19:29;;;;;;;1.58;1.48;;;;;;;-3.11;83.20;99478.16;6198888;28;20093;-75
2023/11/27 05:22:33;;;;;;;3.50;1.98;;;;;;;-3.10;83.19;99479.84;6179387;28;20110;-75
2023/11/27 05:25:33;;;;;;;2.83;1.80;;;;;;;-3.17;83.14;99479.94;6190462;28;20061;-75
2023/11/27 05:28:38;;;;;;;4.57;1.63;;;;;;;-3.18;83.84;99475.72;6199938;28;20047;-75
2023/11/27 05:31:39;;;;;;;1.40;1.25;;;;;;;-3.32;83.74;99474.19;6196042;28;20493;-72
2023/11/27 05:34:41;;;;;;;3.25;2.45;;;;;;;-3.26;84.04;99474.09;6200377;28;20058;-73
2023/11/27 05:37:41;;;;;;;4.80;3.00;;;;;;;-3.20;84.24;99480.84;6200127;28;20081;-73
2023/11/27 05:40:43;;;;;;;3.15;2.35;;;;;;;-3.10;84.63;99490.06;6194090;28;20047;-72
2023/11/27 05:43:44;;;;;;;4.82;1.85;;;;;;;-3.06;84.74;99504.47;6177274;28;20066;-72
2023/11/27 05:46:44;;;;;;;2.88;1.73;;;;;;;-2.92;84.11;99508.53;6176924;28;20051;-75
2023/11/27 05:49:46;;;;;;;3.47;2.30;;;;;;;-2.88;84.88;99520.38;6176513;28;20422;-73
2023/11/27 05:52:48;;;;;;;11.17;2.23;;;;;;;-2.75;84.33;99510.81;6176926;28;20468;-75
2023/11/27 05:55:53;;;;;;;3.72;2.13;;;;;;;-2.72;83.87;99510.75;6189587;28;20054;-72
2023/11/27 05:58:54;;;;;;;7.75;3.90;;;;;;;-2.76;84.30;99510.00;6178133;28;20058;-73
2023/11/27 06:01:55;;;;;;;2.38;2.08;;;;;;;-2.72;84.49;99513.31;6199408;28;20046;-72
2023/11/27 06:04:56;;;;;;;2.30;2.10;;;;;;;-2.73;84.28;99514.19;6198597;28;20571;-72
2023/11/27 06:07:57;;;;;;;2.13;1.73;;;;;;;-2.71;85.00;99502.25;6200427;28;20038;-72
2023/11/27 06:11:00;;;;;;;7.93;2.53;;;;;;;-2.58;84.76;99506.28;6199717;28;20057;-72
2023/11/27 06:14:03;;;;;;;2.33;1.90;;;;;;;-2.71;84.94;99504.81;6198201;28;20070;-72
2023/11/27 06:17:05;;;;;;;2.60;2.10;;;;;;;-2.78;86.17;99498.97;6201042;28;20366;-75
2023/11/27 06:20:17;;;;;;;1.98;1.35;;;;;;;-2.70;86.86;99504.78;6158116;28;20058;-75
2023/11/27 06:23:18;;;;;;;3.03;2.50;;;;;;;-2.64;87.16;99496.16;6180785;28;20555;-76
2023/11/27 06:26:19;;;;;;;5.72;2.25;;;;;;;-2.63;86.42;99500.41;6164011;28;20055;-72
2023/11/27 06:29:20;;;;;;;0.98;0.88;;;;;;;-2.61;86.85;99508.91;6198220;28;20054;-73
2023/11/27 06:32:21;;;;;;;4.38;2.60;;;;;;;-2.42;87.05;99519.66;6191281;28;20086;-75
2023/11/27 06:35:22;;;;;;;14.50;4.65;;;;;;;-2.39;86.06;99521.31;6196170;28;20046;-72
2023/11/27 06:38:23;;;;;;;9.45;4.38;;;;;;;-2.27;86.26;99519.38;6196585;28;20054;-74
2023/11/27 06:41:27;;;;;;;11.73;5.28;;;;;;;-2.38;86.71;99526.41;6198714;28;20517;-73
2023/11/27 06:44:28;;;;;;;9.50;4.88;;;;;;;-2.25;86.90;99527.03;6197444;28;20513;-72
2023/11/27 06:47:33;;;;;;;10.02;4.28;;;;;;;-2.26;86.53;99531.31;6198207;28;20058;-75
2023/11/27 06:50:37;;;;;;;5.03;3.17;;;;;;;-2.18;86.84;99531.19;6198584;28;20057;-75
2023/11/27 06:53:38;;;;;;;6.38;3.28;;;;;;;-1.99;86.81;99534.25;6198386;28;20050;-76
2023/11/27 06:56:40;;;;;;;2.30;2.10;;;;;;;-2.10;86.46;99539.56;6198341;28;20046;-72
2023/11/27 06:59:41;;;;;;;5.40;2.85;;;;;;;-2.04;87.06;99534.34;6198272;28;20054;-72
2023/11/27 07:02:42;;;;;;;4.82;3.28;;;;;;;-1.94;87.67;99535.00;6196987;28;20065;-73
2023/11/27 07:05:43;;;;;;;4.35;2.97;;;;;;;-2.02;87.64;99534.28;6198022;28;20402;-72
2023/11/27 07:08:44;;;;;;;3.40;2.17;;;;;;;-1.89;87.09;99530.66;6196642;28;20047;-75
2023/11/27 07:11:49;;;;;;;2.72;2.15;;;;;;;-1.75;87.03;99538.06;6196744;28;20508;-76
2023/11/27 07:14:50;;;;;;;2.35;1.90;;;;;;;-1.81;87.21;99530.53;6197945;28;20137;-76
2023/11/27 07:17:54;;;;;;;2.78;1.75;;;;;;;-1.73;87.81;99530.34;6197700;28;20069;-73
2023/11/27 07:20:54;;;;;;;3.50;2.53;;;;;;;-1.59;87.75;99537.75;6198287;28;20054;-72
2023/11/27 07:23:56;;;;;;;4.05;2.15;;;;;;;-1.52;87.26;99535.06;6196724;28;20120;-76
2023/11/27 07:26:57;;;;;;;4.63;3.23;;;;;;;-1.47;87.62;99533.25;6197557;28;20049;-71
2023/11/27 07:29:57;;;;;;;5.93;3.10;;;;;;;-1.38;87.52;99532.22;6196544;28;20137;-75
2023/11/27 07:33:01;;;;;;;3.50;2.05;;;;;;;-1.48;87.90;99531.56;6196349;28;20145;-72
2023/11/27 07:36:02;;;;;;;5.65;2.85;;;;;;;-1.40;88.06;99533.13;6196839;28;20417;-73
2023/11/27 07:39:03;;;;;;;10.23;3.08;;;;;;;-1.38;88.50;99518.56;6196094;28;20077;-75
2023/11/27 07:42:04;;;;;;;6.85;3.10;;;;;;;-1.32;89.71;99521.00;6197367;28;20054;-73
2023/11/27 07:45:06;;;;;;;3.53;2.50;;;;;;;-1.44;88.83;99514.44;6196034;28;20090;-75
2023/11/27 07:48:07;;;;;;;11.68;4.80;;;;;;;-1.15;89.61;99533.44;6197234;28;20138;-72
2023/11/27 07:51:09;;;;;;;16.92;8.93;;;;;;;-1.15;89.95;99530.88;6197096;28;20410;-75
2023/11/27 07:54:10;;;;;;;8.68;5.38;;;;;;;-1.05;90.33;99519.56;6196215;28;20050;-72
2023/11/27 07:57:11;;;;;;;5.18;3.42;;;;;;;-1.03;90.69;99520.38;6197083;28;20057;-76
2023/11/27 08:00:14;;;;;;;3.92;3.05;;;;;;;-0.90;89.99;99519.22;6195891;28;20054;-73
2023/11/27 08:03:15;;;;;;;8.50;4.15;;;;;;;-0.87;90.39;99510.63;6197094;28;20547;-72
2023/11/27 08:06:17;;;;;;;10.52;4.88;;;;;;;-0.77;90.09;99511.28;6196979;28;20046;-72
2023/11/27 08:09:19;;;;;;;5.53;3.63;;;;;;;-0.85;90.06;99504.59;6197176;28;20086;-75
2023/11/27 08:12:25;;;;;;;7.65;3.60;;;;;;;-0.83;90.80;99510.53;6195700;28;20058;-72
2023/11/27 08:15:26;;;;;;;3.80;2.28;;;;;;;-0.89;91.47;99502.97;6197171;28;20043;-75
2023/11/27 08:18:26;;;;;;;5.55;2.95;;;;;;;-0.74;91.54;99506.91;6197416;28;20097;-72
2023/11/27 08:21:27;;;;;;;4.63;3.17;;;;;;;-0.77;92.27;99512.09;6203946;28;20053;-75
2023/11/27 08:24:28;;;;;;;4.10;3.05;;;;;;;-0.65;92.70;99523.78;6203665;28;20058;-75
2023/11/27 08:27:29;;;;;;;6.45;2.88;;;;;;;-0.56;92.20;99527.84;6204736;28;20058;-73
2023/11/27 08:30:32;;;;;;;5.57;3.20;;;;;;;-0.61;93.21;99522.84;6204982;28;20054;-75
2023/11/27 08:33:33;;;;;;;4.80;2.83;;;;;;;-0.69;93.79;99522.19;6204811;28;20078;-74
2023/11/27 08:36:39;;;;;;;2.47;2.03;;;;;;;-0.70;94.17;99517.91;6204795;28;20050;-73
2023/11/27 08:39:40;;;;;;;4.22;2.42;;;;;;;-0.79;94.15;99513.84;6203575;28;20094;-75
2023/11/27 08:42:42;;;;;;;4.35;2.78;;;;;;;-0.59;95.17;99526.22;6204599;28;20460;-73
2023/11/27 08:45:44;;;;;;;5.70;3.35;;;;;;;-0.57;94.97;99529.59;6204725;28;20050;-75
2023/11/27 08:48:48;;;;;;;5.03;2.70;;;;;;;-0.52;96.05;99521.78;6204460;28;20089;-73
2023/11/27 08:51:49;;;;;;;5.63;2.60;;;;;;;-0.58;96.94;99515.06;6203336;28;20046;-75
2023/11/27 08:54:50;;;;;;;4.15;3.17;;;;;;;-0.54;97.82;99518.41;6203559;28;20061;-72
2023/11/27 08:57:51;;;;;;;6.25;3.40;;;;;;;-0.46;96.95;99532.72;6204476;28;20381;-73
2023/11/27 09:00:52;;;;;;;6.63;3.40;;;;;;;-0.73;98.65;99525.69;6203568;28;20058;-72
2023/11/27 09:03:55;;;;;;;5.47;3.63;;;;;;;-0.58;98.50;99515.06;6204702;28;20057;-72
2023/11/27 09:06:56;;;;;;;5.18;3.22;;;;;;;-0.36;99.06;99523.09;6203242;28;20093;-73
2023/11/27 09:09:56;;;;;;;3.38;2.50;;;;;;;-0.57;99.31;99516.75;6204248;28;20058;-71
2023/11/27 09:12:57;;;;;;;5.55;3.25;;;;;;;-0.65;99.95;99516.09;6203261;28;20556;-75
2023/11/27 09:15:59;;;;;;;4.43;2.90;;;;;;;-0.44;100.00;99519.88;6203520;28;20054;-75
2023/11/27 09:18:59;;;;;;;10.23;3.08;;;;;;;-0.31;99.78;99510.13;6203094;28;20408;-75
2023/11/27 09:22:00;;;;;;;3.72;2.85;;;;;;;-0.42;100.00;99518.94;6204622;28;20088;-72
2023/11/27 09:25:02;;;;;;;7.00;3.42;;;;;;;-0.37;100.00;99512.84;6204418;28;20052;-72
2023/11/27 09:28:03;;;;;;;6.25;3.25;;;;;;;-0.29;100.00;99513.50;6204557;28;20117;-71
2023/11/27 09:31:04;;;;;;;5.07;3.03;;;;;;;-0.34;100.00;99507.66;6201811;28;20108;-74
2023/11/27 09:34:05;;;;;;;3.75;2.85;;;;;;;-0.22;100.00;99499.66;6200494;28;20076;-74
2023/11/27 09:37:08;;;;;;;2.83;2.25;;;;;;;-0.34;100.00;99497.41;6200337;28;20456;-71
2023/11/27 09:40:12;;;;;;;4.10;3.22;;;;;;;-0.38;100.00;99498.38;6200569;28;20054;-75
2023/11/27 09:43:14;;;;;;;6.25;3.22;;;;;;;-0.22;100.00;99494.53;6200411;28;20086;-75
2023/11/27 09:46:19;;;;;;;13.57;3.58;;;;;;;-0.05;100.00;99489.78;6199094;28;20054;-72
2023/11/27 09:49:24;;;;;;;5.80;3.58;;;;;;;0.09;100.00;99486.03;6199941;28;20066;-75
2023/11/27 09:52:49;;;;;;;6.22;3.35;;;;;;;0.29;100.00;99472.63;6200117;28;20485;-72
2023/11/27 09:55:53;;;;;;;6.78;2.97;;;;;;;0.18;99.77;99472.94;6200155;28;20065;-77
2023/11/27 09:58:59;;;;;;;4.60;2.45;;;;;;;0.08;99.57;99485.16;6198711;28;20394;-74
2023/11/27 10:02:01;;;;;;;2.85;2.13;;;;;;;-0.05;100.00;99476.97;6200220;28;20050;-74
2023/11/27 10:05:08;;;;;;;3.85;2.17;;;;;;;0.06;100.00;99465.56;6198490;28;20505;-75
2023/11/27 10:08:11;;;;;;;11.48;6.85;;;;;;;-0.04;100.00;99475.28;6199638;28;20500;-75
2023/11/27 10:11:13;;;;;;;6.82;4.40;;;;;;;0.28;100.00;99464.09;6199520;28;20058;-76
2023/11/27 10:14:15;;;;;;;5.45;3.13;;;;;;;0.22;100.00;99468.56;6199798;28;20060;-73
2023/11/27 10:17:20;;;;;;;7.55;3.25;;;;;;;-0.01;100.00;99468.31;6199549;28;20129;-73
2023/11/27 10:20:22;;;;;;;3.97;2.47;;;;;;;0.14;100.00;99463.66;6198439;28;20055;-76
2023/11/27 10:23:23;;;;;;;4.30;2.58;;;;;;;0.16;100.00;99465.28;6199363;28;20054;-76
2023/11/27 10:26:24;;;;;;;2.35;2.08;;;;;;;0.31;100.00;99464.03;6198039;28;20564;-72
2023/11/27 10:29:26;;;;;;;3.35;2.15;;;;;;;0.51;99.76;99452.34;6199216;28;20057;-76
2023/11/27 10:32:27;;;;;;;3.72;2.40;;;;;;;0.38;99.65;99451.84;6199038;28;20050;-76
2023/11/27 10:35:32;;;;;;;2.78;2.05;;;;;;;0.49;98.94;99444.66;6197825;28;20096;-73
2023/11/27 10:38:36;;;;;;;4.75;3.22;;;;;;;0.58;99.17;99434.13;6197540;28;20085;-75
2023/11/27 10:41:40;;;;;;;5.90;3.13;;;;;;;0.70;98.77;99438.06;6197420;28;20089;-73
2023/11/27 10:44:44;;;;;;;5.80;3.05;;;;;;;0.64;97.99;99430.56;6198811;28;20144;-76
2023/11/27 10:47:48;;;;;;;3.60;3.00;;;;;;;0.73;98.08;99437.13;6198778;28;20065;-75
2023/11/27 10:50:51;;;;;;;4.68;2.78;;;;;;;0.71;98.42;99438.91;6197444;28;20054;-73
2023/11/27 10:54:01;;;;;;;5.60;3.47;;;;;;;0.84;97.71;99431.66;6199158;28;20073;-73
2023/11/27 10:57:03;;;;;;;4.32;3.58;;;;;;;0.98;97.49;99425.19;6198571;28;20043;-74
2023/11/27 11:00:05;;;;;;;5.90;3.00;;;;;;;0.99;97.29;99424.31;6198501;28;20457;-73
2023/11/27 11:03:15;;;;;;;5.57;2.78;;;;;;;1.12;96.70;99419.63;6198663;28;20511;-76
2023/11/27 11:06:18;;;;;;;5.45;3.30;;;;;;;1.22;96.53;99427.03;6198648;28;20054;-76
2023/11/27 11:09:24;;;;;;;3.22;2.45;;;;;;;1.05;96.40;99414.72;6197163;28;20104;-76
2023/11/27 11:12:27;;;;;;;8.57;4.07;;;;;;;1.23;97.27;99418.44;6197067;28;20157;-77
2023/11/27 11:15:38;;;;;;;3.75;3.17;;;;;;;1.21;96.65;99410.75;6196977;28;20137;-73
2023/11/27 11:19:16;;;;;;;4.75;3.05;;;;;;;1.33;97.14;99409.53;6198124;28;20083;-76
2023/11/27 11:22:30;;;;;;;10.57;2.45;;;;;;;1.37;96.59;99406.78;6197947;28;20050;-73
2023/11/27 11:25:51;;;;;;;3.58;3.00;;;;;;;1.38;95.99;99397.34;6197948;28;20085;-72
2023/11/27 11:29:11;;;;;;;7.03;3.63;;;;;;;1.34;96.10;99401.78;6196799;28;20052;-75
2023/11/27 11:32:16;;;;;;;2.55;1.80;;;;;;;1.34;95.88;99394.06;6197836;28;20065;-74
2023/11/27 11:35:18;;;;;;;4.22;2.58;;;;;;;1.49;95.51;99392.69;6197741;28;20054;-76
2023/11/27 11:38:21;;;;;;;5.72;3.40;;;;;;;1.68;95.28;99392.06;6196490;28;20054;-76
2023/11/27 11:41:24;;;;;;;;;;;;;;;1.63;94.39;99399.94;6198250;28;20061;-73
2023/11/27 11:44:25;;;;;;;3.28;2.45;;;;;;;1.64;94.35;99387.91;6197698;28;19921;-72
2023/11/27 11:47:28;;;;;;;6.82;3.40;;;;;;;1.59;94.28;99378.63;6196173;28;20057;-73
2023/11/27 11:50:40;;;;;;;8.05;4.40;;;;;;;1.60;94.39;99375.16;6196309;28;20082;-73
2023/11/27 11:53:43;;;;;;;3.03;2.33;;;;;;;1.71;93.65;99364.50;6196533;28;20050;-76
2023/11/27 11:56:47;;;;;;;3.05;2.13;;;;;;;1.78;93.71;99355.66;6197561;28;20054;-76
2023/11/27 11:59:50;;;;;;;4.25;2.40;;;;;;;1.83;93.28;99363.19;6197627;28;20138;-76
2023/11/27 12:02:53;;;;;;;7.13;3.20;;;;;;;1.87;93.22;99364.75;6196249;28;20112;-73
2023/11/27 12:05:58;;;;;;;4.63;2.85;;;;;;;2.04;92.65;99355.59;6197357;28;20054;-76
2023/11/27 12:09:00;;;;;;;4.95;2.67;;;;;;;1.95;91.46;99359.34;6197265;28;20046;-76
2023/11/27 12:12:01;;;;;;;3.83;2.53;;;;;;;1.82;91.82;99353.81;6196935;28;20054;-75
2023/11/27 12:15:05;;;;;;;4.05;2.28;;;;;;;1.74;91.79;99354.09;6198418;28;20085;-76
2023/11/27 12:18:10;;;;;;;4.53;2.17;;;;;;;1.87;91.76;99345.94;6198033;28;20042;-75
2023/11/27 12:21:12;;;;;;;4.40;2.78;;;;;;;2.01;91.40;99341.94;6197205;28;20136;-72
2023/11/27 12:24:12;;;;;;;4.20;2.30;;;;;;;1.99;90.78;99330.88;6196996;28;20046;-72
2023/11/27 12:27:13;;;;;;;5.15;3.08;;;;;;;2.06;91.51;99331.50;6198050;28;20347;-76
2023/11/27 12:30:20;;;;;;;7.82;3.38;;;;;;;2.27;90.37;99337.56;6198363;28;20061;-76
2023/11/27 12:33:21;;;;;;;3.00;2.22;;;;;;;2.15;90.02;99325.16;6197728;28;20532;-76
2023/11/27 12:36:24;;;;;;;5.82;3.20;;;;;;;2.18;90.37;99332.75;6197970;28;20055;-73
2023/11/27 12:39:29;;;;;;;6.07;2.75;;;;;;;2.00;91.14;99319.69;6196821;28;20050;-76
2023/11/27 12:42:31;;;;;;;4.07;2.78;;;;;;;1.93;91.88;99319.97;6197658;28;20481;-73
2023/11/27 12:45:36;;;;;;;5.90;3.15;;;;;;;2.24;91.38;99322.22;6197694;28;20054;-76
2023/11/27 12:48:40;;;;;;;5.22;3.30;;;;;;;2.16;91.47;99316.53;6195303;28;20137;-76
2023/11/27 12:51:40;;;;;;;5.70;3.42;;;;;;;2.00;92.11;99319.69;6196071;28;20062;-76
2023/11/27 12:54:47;;;;;;;3.85;2.42;;;;;;;1.87;92.81;99305.59;6196372;28;20129;-72
2023/11/27 12:57:49;;;;;;;5.63;3.08;;;;;;;1.82;93.53;99315.22;6195763;28;20519;-73
2023/11/27 13:00:51;;;;;;;7.60;3.95;;;;;;;1.91;93.90;99312.31;6196088;28;20061;-72
2023/11/27 13:03:53;;;;;;;5.45;3.17;;;;;;;1.82;94.65;99317.81;6195889;28;20410;-72
2023/11/27 13:06:57;;;;;;;6.35;3.55;;;;;;;1.91;94.84;99317.44;6199823;28;20053;-76
2023/11/27 13:10:08;;;;;;;7.22;3.13;;;;;;;1.86;94.67;99306.50;6201059;28;20057;-76
2023/11/27 13:13:12;;;;;;;6.90;4.63;;;;;;;2.02;94.82;99311.94;6201210;28;20046;-76
2023/11/27 13:16:17;;;;;;;7.03;3.78;;;;;;;1.95;95.13;99305.31;6199635;28;20543;-76
2023/11/27 13:19:18;;;;;;;7.45;4.57;;;;;;;2.05;94.83;99316.13;6200661;28;20480;-73
2023/11/27 13:22:20;;;;;;;6.32;4.18;;;;;;;1.94;95.25;99307.06;6200640;28;20651;-76
2023/11/27 13:25:34;;;;;;;9.70;4.45;;;;;;;2.08;95.22;99311.69;6200654;28;20100;-75
2023/11/27 13:28:37;;;;;;;7.57;3.67;;;;;;;2.04;95.34;99317.84;6199341;28;20416;-75
2023/11/27 13:31:39;;;;;;;;;;;;;;;1.95;95.93;99313.88;6200690;28;20512;-75
2023/11/27 13:34:54;;;;;;;3.90;2.72;;;;;;;1.75;97.05;99306.91;6200412;28;20132;-73
2023/11/27 13:38:00;;;;;;;8.30;3.92;;;;;;;1.83;98.07;99311.75;6199052;28;20050;-73
2023/11/27 13:41:01;;;;;;;6.00;3.92;;;;;;;1.79;98.41;99316.19;6200307;28;20492;-72
2023/11/27 13:44:08;;;;;;;8.60;4.63;;;;;;;1.86;98.08;99310.81;6199156;28;20058;-76
2023/11/27 13:47:09;;;;;;;9.05;4.10;;;;;;;2.04;97.76;99314.41;6200050;28;20102;-76
2023/11/27 13:50:10;;;;;;;6.23;4.23;;;;;;;2.15;97.16;99312.28;6199999;28;20533;-76
2023/11/27 13:53:15;;;;;;;7.20;4.78;;;;;;;2.01;97.64;99315.38;6198796;28;20472;-76
2023/11/27 13:56:19;;;;;;;7.25;4.05;;;;;;;1.97;98.13;99311.25;6198810;28;20046;-73
2023/11/27 13:59:20;;;;;;;5.80;4.20;;;;;;;1.92;98.56;99308.84;6198759;28;20758;-73
2023/11/27 14:02:26;;;;;;;9.02;4.43;;;;;;;1.93;98.75;99307.09;6199880;28;20054;-73
2023/11/27 14:05:36;;;;;;;5.43;3.83;;;;;;;1.97;98.77;99295.81;6198802;28;20060;-76
2023/11/27 14:08:52;;;;;;;11.30;5.10;;;;;;;1.91;98.87;99296.88;6199839;28;20051;-76
2023/11/27 14:11:56;;;;;;;6.38;4.65;;;;;;;2.02;99.11;99293.91;6199449;28;20533;-76
2023/11/27 14:15:08;;;;;;;12.32;5.40;;;;;;;2.09;99.00;99294.50;6199456;28;20512;-73
2023/11/27 14:24:57;;;;;;;8.20;5.28;;;;;;;1.98;99.36;99290.59;6199315;28;20504;-75
2023/11/27 14:31:18;;;;;;;5.70;4.15;;;;;;;1.99;99.68;99283.72;6199232;28;20082;-76
2023/11/27 14:34:25;;;;;;;7.25;5.45;;;;;;;1.94;99.73;99291.63;6198980;28;20088;-76